sensor_id;sensor_type;location;lat;lon;timestamp;temperature;humidity
20492;DHT22;10404;51.468;6.762;2023-07-28T00:00:37;17.50;77.10
20492;DHT22;10404;51.468;6.762;2023-07-28T00:03:03;17.50;76.90
20492;DHT22;10404;51.468;6.762;2023-07-28T00:05:28;17.50;76.90
20492;DHT22;10404;51.468;6.762;2023-07-28T00:07:54;17.50;77.10
20492;DHT22;10404;51.468;6.762;2023-07-28T00:10:19;17.50;77.00
20492;DHT22;10404;51.468;6.762;2023-07-28T00:12:45;17.50;77.00
20492;DHT22;10404;51.468;6.762;2023-07-28T00:15:11;17.40;77.00
20492;DHT22;10404;51.468;6.762;2023-07-28T00:17:36;17.40;76.80
20492;DHT22;10404;51.468;6.762;2023-07-28T00:20:02;17.40;76.90
20492;DHT22;10404;51.468;6.762;2023-07-28T00:22:28;17.40;77.10
20492;DHT22;10404;51.468;6.762;2023-07-28T00:24:53;17.40;76.90
20492;DHT22;10404;51.468;6.762;2023-07-28T00:27:19;17.40;77.40
20492;DHT22;10404;51.468;6.762;2023-07-28T00:29:44;17.40;77.10
20492;DHT22;10404;51.468;6.762;2023-07-28T00:32:10;17.40;77.20
20492;DHT22;10404;51.468;6.762;2023-07-28T00:34:36;17.40;77.10
20492;DHT22;10404;51.468;6.762;2023-07-28T00:37:01;17.40;77.00
20492;DHT22;10404;51.468;6.762;2023-07-28T00:39:27;17.40;77.10
20492;DHT22;10404;51.468;6.762;2023-07-28T00:41:52;17.40;76.90
20492;DHT22;10404;51.468;6.762;2023-07-28T00:44:18;17.40;77.20
20492;DHT22;10404;51.468;6.762;2023-07-28T00:46:44;17.40;77.10
20492;DHT22;10404;51.468;6.762;2023-07-28T00:49:10;17.40;77.20
20492;DHT22;10404;51.468;6.762;2023-07-28T00:51:37;17.40;77.20
20492;DHT22;10404;51.468;6.762;2023-07-28T00:54:06;17.40;77.00
20492;DHT22;10404;51.468;6.762;2023-07-28T00:56:32;17.40;77.40
20492;DHT22;10404;51.468;6.762;2023-07-28T00:58:58;17.30;77.00
20492;DHT22;10404;51.468;6.762;2023-07-28T01:01:23;17.30;77.40
20492;DHT22;10404;51.468;6.762;2023-07-28T01:03:50;17.30;77.10
20492;DHT22;10404;51.468;6.762;2023-07-28T01:06:45;17.30;77.20
20492;DHT22;10404;51.468;6.762;2023-07-28T01:09:15;17.30;77.00
20492;DHT22;10404;51.468;6.762;2023-07-28T01:11:55;17.30;77.20
20492;DHT22;10404;51.468;6.762;2023-07-28T01:14:20;17.30;77.50
20492;DHT22;10404;51.468;6.762;2023-07-28T01:16:46;17.30;77.00
20492;DHT22;10404;51.468;6.762;2023-07-28T01:19:12;17.30;77.50
20492;DHT22;10404;51.468;6.762;2023-07-28T01:21:39;17.20;77.10
20492;DHT22;10404;51.468;6.762;2023-07-28T01:24:22;17.30;77.60
20492;DHT22;10404;51.468;6.762;2023-07-28T01:26:53;17.30;77.80
20492;DHT22;10404;51.468;6.762;2023-07-28T01:29:19;17.20;77.10
20492;DHT22;10404;51.468;6.762;2023-07-28T01:31:49;17.20;77.30
20492;DHT22;10404;51.468;6.762;2023-07-28T01:34:16;17.20;77.20
20492;DHT22;10404;51.468;6.762;2023-07-28T01:36:41;17.20;77.30
20492;DHT22;10404;51.468;6.762;2023-07-28T01:39:07;17.20;77.50
20492;DHT22;10404;51.468;6.762;2023-07-28T01:41:33;17.20;77.20
20492;DHT22;10404;51.468;6.762;2023-07-28T01:43:58;17.20;78.10
20492;DHT22;10404;51.468;6.762;2023-07-28T01:46:24;17.20;77.30
20492;DHT22;10404;51.468;6.762;2023-07-28T01:48:49;17.20;77.40
20492;DHT22;10404;51.468;6.762;2023-07-28T01:51:15;17.20;78.00
20492;DHT22;10404;51.468;6.762;2023-07-28T01:53:41;17.20;77.60
20492;DHT22;10404;51.468;6.762;2023-07-28T01:56:06;17.20;77.40
20492;DHT22;10404;51.468;6.762;2023-07-28T01:58:32;17.20;77.30
20492;DHT22;10404;51.468;6.762;2023-07-28T02:00:57;17.20;77.40
20492;DHT22;10404;51.468;6.762;2023-07-28T02:03:23;17.20;77.60
20492;DHT22;10404;51.468;6.762;2023-07-28T02:05:48;17.20;77.80
20492;DHT22;10404;51.468;6.762;2023-07-28T02:08:15;17.20;77.30
20492;DHT22;10404;51.468;6.762;2023-07-28T02:10:40;17.20;77.20
20492;DHT22;10404;51.468;6.762;2023-07-28T02:13:06;17.20;77.40
20492;DHT22;10404;51.468;6.762;2023-07-28T02:15:31;17.20;77.10
20492;DHT22;10404;51.468;6.762;2023-07-28T02:17:57;17.20;77.60
20492;DHT22;10404;51.468;6.762;2023-07-28T02:20:22;17.20;77.60
20492;DHT22;10404;51.468;6.762;2023-07-28T02:22:48;17.20;77.40
20492;DHT22;10404;51.468;6.762;2023-07-28T02:25:14;17.20;78.30
20492;DHT22;10404;51.468;6.762;2023-07-28T02:27:39;17.20;77.20
20492;DHT22;10404;51.468;6.762;2023-07-28T02:30:06;17.20;77.50
20492;DHT22;10404;51.468;6.762;2023-07-28T02:32:32;17.20;78.10
20492;DHT22;10404;51.468;6.762;2023-07-28T02:34:58;17.20;77.50
20492;DHT22;10404;51.468;6.762;2023-07-28T02:37:25;17.20;77.50
20492;DHT22;10404;51.468;6.762;2023-07-28T02:39:50;17.20;78.00
20492;DHT22;10404;51.468;6.762;2023-07-28T02:42:16;17.20;77.50
20492;DHT22;10404;51.468;6.762;2023-07-28T02:44:42;17.20;77.60
20492;DHT22;10404;51.468;6.762;2023-07-28T02:47:07;17.20;77.60
20492;DHT22;10404;51.468;6.762;2023-07-28T02:49:33;17.20;77.40
20492;DHT22;10404;51.468;6.762;2023-07-28T02:51:59;17.20;77.30
20492;DHT22;10404;51.468;6.762;2023-07-28T02:54:24;17.20;77.20
20492;DHT22;10404;51.468;6.762;2023-07-28T02:56:51;17.20;77.30
20492;DHT22;10404;51.468;6.762;2023-07-28T02:59:16;17.20;77.20
20492;DHT22;10404;51.468;6.762;2023-07-28T03:01:42;17.20;77.90
20492;DHT22;10404;51.468;6.762;2023-07-28T03:04:08;17.20;77.60
20492;DHT22;10404;51.468;6.762;2023-07-28T03:06:33;17.20;77.20
20492;DHT22;10404;51.468;6.762;2023-07-28T03:08:59;17.20;77.60
20492;DHT22;10404;51.468;6.762;2023-07-28T03:11:25;17.20;78.20
20492;DHT22;10404;51.468;6.762;2023-07-28T03:13:50;17.20;77.60
20492;DHT22;10404;51.468;6.762;2023-07-28T03:16:16;17.20;77.70
20492;DHT22;10404;51.468;6.762;2023-07-28T03:18:42;17.20;77.50
20492;DHT22;10404;51.468;6.762;2023-07-28T03:21:08;17.20;77.70
20492;DHT22;10404;51.468;6.762;2023-07-28T03:23:34;17.20;77.90
20492;DHT22;10404;51.468;6.762;2023-07-28T03:26:00;17.20;77.40
20492;DHT22;10404;51.468;6.762;2023-07-28T03:28:26;17.20;77.90
20492;DHT22;10404;51.468;6.762;2023-07-28T03:30:51;17.20;77.30
20492;DHT22;10404;51.468;6.762;2023-07-28T03:33:17;17.10;77.40
20492;DHT22;10404;51.468;6.762;2023-07-28T03:35:42;17.20;77.90
20492;DHT22;10404;51.468;6.762;2023-07-28T03:38:08;17.10;77.50
20492;DHT22;10404;51.468;6.762;2023-07-28T03:40:34;17.20;77.90
20492;DHT22;10404;51.468;6.762;2023-07-28T03:43:00;17.20;77.70
20492;DHT22;10404;51.468;6.762;2023-07-28T03:45:25;17.10;77.40
20492;DHT22;10404;51.468;6.762;2023-07-28T03:47:51;17.20;77.50
20492;DHT22;10404;51.468;6.762;2023-07-28T03:50:17;17.20;78.10
20492;DHT22;10404;51.468;6.762;2023-07-28T03:52:42;17.10;78.10
20492;DHT22;10404;51.468;6.762;2023-07-28T03:55:08;17.10;77.50
20492;DHT22;10404;51.468;6.762;2023-07-28T03:57:33;17.10;77.30
20492;DHT22;10404;51.468;6.762;2023-07-28T03:59:59;17.20;77.70
20492;DHT22;10404;51.468;6.762;2023-07-28T04:02:25;17.10;78.20
20492;DHT22;10404;51.468;6.762;2023-07-28T04:04:57;17.10;77.60
20492;DHT22;10404;51.468;6.762;2023-07-28T04:07:22;17.10;77.30
20492;DHT22;10404;51.468;6.762;2023-07-28T04:09:48;17.10;77.20
20492;DHT22;10404;51.468;6.762;2023-07-28T04:12:14;17.10;78.70
20492;DHT22;10404;51.468;6.762;2023-07-28T04:14:39;17.10;77.70
20492;DHT22;10404;51.468;6.762;2023-07-28T04:17:06;17.10;78.40
20492;DHT22;10404;51.468;6.762;2023-07-28T04:19:32;17.10;77.20
20492;DHT22;10404;51.468;6.762;2023-07-28T04:21:59;17.10;77.90
20492;DHT22;10404;51.468;6.762;2023-07-28T04:24:25;17.10;77.50
20492;DHT22;10404;51.468;6.762;2023-07-28T04:26:51;17.10;77.50
20492;DHT22;10404;51.468;6.762;2023-07-28T04:29:17;17.10;77.20
20492;DHT22;10404;51.468;6.762;2023-07-28T04:31:42;17.10;78.20
20492;DHT22;10404;51.468;6.762;2023-07-28T04:34:08;17.20;77.90
20492;DHT22;10404;51.468;6.762;2023-07-28T04:36:34;17.10;77.40
20492;DHT22;10404;51.468;6.762;2023-07-28T04:38:59;17.10;77.60
20492;DHT22;10404;51.468;6.762;2023-07-28T04:41:25;17.10;78.30
20492;DHT22;10404;51.468;6.762;2023-07-28T04:43:50;17.20;77.90
20492;DHT22;10404;51.468;6.762;2023-07-28T04:46:16;17.10;77.50
20492;DHT22;10404;51.468;6.762;2023-07-28T04:48:42;17.10;77.50
20492;DHT22;10404;51.468;6.762;2023-07-28T04:51:07;17.20;77.90
20492;DHT22;10404;51.468;6.762;2023-07-28T04:53:33;17.20;77.80
20492;DHT22;10404;51.468;6.762;2023-07-28T04:55:58;17.20;78.00
20492;DHT22;10404;51.468;6.762;2023-07-28T04:58:24;17.20;77.50
20492;DHT22;10404;51.468;6.762;2023-07-28T05:00:50;17.20;77.90
20492;DHT22;10404;51.468;6.762;2023-07-28T05:03:15;17.20;78.00
20492;DHT22;10404;51.468;6.762;2023-07-28T05:05:44;17.20;77.80
20492;DHT22;10404;51.468;6.762;2023-07-28T05:08:10;17.20;78.20
20492;DHT22;10404;51.468;6.762;2023-07-28T05:10:35;17.20;77.40
20492;DHT22;10404;51.468;6.762;2023-07-28T05:13:01;17.20;77.30
20492;DHT22;10404;51.468;6.762;2023-07-28T05:15:29;17.20;77.30
20492;DHT22;10404;51.468;6.762;2023-07-28T05:17:55;17.20;76.80
20492;DHT22;10404;51.468;6.762;2023-07-28T05:20:21;17.20;76.60
20492;DHT22;10404;51.468;6.762;2023-07-28T05:22:46;17.20;77.50
20492;DHT22;10404;51.468;6.762;2023-07-28T05:25:12;17.20;77.20
20492;DHT22;10404;51.468;6.762;2023-07-28T05:27:38;17.20;77.80
20492;DHT22;10404;51.468;6.762;2023-07-28T05:30:04;17.20;77.30
20492;DHT22;10404;51.468;6.762;2023-07-28T05:32:29;17.20;77.80
20492;DHT22;10404;51.468;6.762;2023-07-28T05:34:55;17.20;77.40
20492;DHT22;10404;51.468;6.762;2023-07-28T05:37:21;17.20;76.90
20492;DHT22;10404;51.468;6.762;2023-07-28T05:39:46;17.20;77.20
20492;DHT22;10404;51.468;6.762;2023-07-28T05:42:12;17.20;77.60
20492;DHT22;10404;51.468;6.762;2023-07-28T05:44:37;17.20;77.40
20492;DHT22;10404;51.468;6.762;2023-07-28T05:47:03;17.20;77.50
20492;DHT22;10404;51.468;6.762;2023-07-28T05:49:30;17.20;77.30
20492;DHT22;10404;51.468;6.762;2023-07-28T05:51:59;17.20;77.40
20492;DHT22;10404;51.468;6.762;2023-07-28T05:54:24;17.20;78.10
20492;DHT22;10404;51.468;6.762;2023-07-28T05:56:50;17.20;77.70
20492;DHT22;10404;51.468;6.762;2023-07-28T05:59:15;17.20;77.70
20492;DHT22;10404;51.468;6.762;2023-07-28T06:01:41;17.20;78.50
20492;DHT22;10404;51.468;6.762;2023-07-28T06:04:07;17.20;78.30
20492;DHT22;10404;51.468;6.762;2023-07-28T06:06:32;17.20;78.40
20492;DHT22;10404;51.468;6.762;2023-07-28T06:08:58;17.30;78.50
20492;DHT22;10404;51.468;6.762;2023-07-28T06:11:24;17.20;78.70
20492;DHT22;10404;51.468;6.762;2023-07-28T06:13:49;17.30;78.50
20492;DHT22;10404;51.468;6.762;2023-07-28T06:16:15;17.30;78.30
20492;DHT22;10404;51.468;6.762;2023-07-28T06:18:41;17.30;77.90
20492;DHT22;10404;51.468;6.762;2023-07-28T06:21:06;17.30;77.90
20492;DHT22;10404;51.468;6.762;2023-07-28T06:23:32;17.30;78.40
20492;DHT22;10404;51.468;6.762;2023-07-28T06:25:58;17.40;78.10
20492;DHT22;10404;51.468;6.762;2023-07-28T06:28:23;17.40;78.10
20492;DHT22;10404;51.468;6.762;2023-07-28T06:30:56;17.40;78.30
20492;DHT22;10404;51.468;6.762;2023-07-28T06:33:22;17.40;78.20
20492;DHT22;10404;51.468;6.762;2023-07-28T06:35:48;17.40;78.30
20492;DHT22;10404;51.468;6.762;2023-07-28T06:38:13;17.40;79.10
20492;DHT22;10404;51.468;6.762;2023-07-28T06:40:39;17.40;78.30
20492;DHT22;10404;51.468;6.762;2023-07-28T06:43:04;17.40;79.00
20492;DHT22;10404;51.468;6.762;2023-07-28T06:45:30;17.40;79.30
20492;DHT22;10404;51.468;6.762;2023-07-28T06:47:56;17.40;79.60
20492;DHT22;10404;51.468;6.762;2023-07-28T06:50:21;17.50;79.00
20492;DHT22;10404;51.468;6.762;2023-07-28T06:52:47;17.50;79.30
20492;DHT22;10404;51.468;6.762;2023-07-28T06:55:18;17.50;79.60
20492;DHT22;10404;51.468;6.762;2023-07-28T06:57:46;17.50;79.90
20492;DHT22;10404;51.468;6.762;2023-07-28T07:00:12;17.50;79.00
20492;DHT22;10404;51.468;6.762;2023-07-28T07:02:38;17.50;78.80
20492;DHT22;10404;51.468;6.762;2023-07-28T07:05:03;17.50;79.20
20492;DHT22;10404;51.468;6.762;2023-07-28T07:07:29;17.50;79.00
20492;DHT22;10404;51.468;6.762;2023-07-28T07:09:55;17.50;79.30
20492;DHT22;10404;51.468;6.762;2023-07-28T07:12:20;17.60;80.00
20492;DHT22;10404;51.468;6.762;2023-07-28T07:14:47;17.60;79.70
20492;DHT22;10404;51.468;6.762;2023-07-28T07:17:13;17.60;79.60
20492;DHT22;10404;51.468;6.762;2023-07-28T07:19:38;17.60;80.20
20492;DHT22;10404;51.468;6.762;2023-07-28T07:22:05;17.70;79.70
20492;DHT22;10404;51.468;6.762;2023-07-28T07:24:31;17.80;80.30
20492;DHT22;10404;51.468;6.762;2023-07-28T07:26:56;17.80;80.30
20492;DHT22;10404;51.468;6.762;2023-07-28T07:29:22;17.80;80.30
20492;DHT22;10404;51.468;6.762;2023-07-28T07:31:48;17.90;79.90
20492;DHT22;10404;51.468;6.762;2023-07-28T07:34:14;17.90;80.30
20492;DHT22;10404;51.468;6.762;2023-07-28T07:36:39;17.90;80.00
20492;DHT22;10404;51.468;6.762;2023-07-28T07:39:05;18.00;80.00
20492;DHT22;10404;51.468;6.762;2023-07-28T07:41:31;18.00;80.40
20492;DHT22;10404;51.468;6.762;2023-07-28T07:43:57;18.00;80.30
20492;DHT22;10404;51.468;6.762;2023-07-28T07:46:23;18.00;80.50
20492;DHT22;10404;51.468;6.762;2023-07-28T07:48:49;18.00;80.40
20492;DHT22;10404;51.468;6.762;2023-07-28T07:51:16;18.00;80.80
20492;DHT22;10404;51.468;6.762;2023-07-28T07:53:41;18.10;79.70
20492;DHT22;10404;51.468;6.762;2023-07-28T07:56:07;18.10;80.00
20492;DHT22;10404;51.468;6.762;2023-07-28T07:58:34;18.10;80.30
20492;DHT22;10404;51.468;6.762;2023-07-28T08:00:59;18.10;80.20
20492;DHT22;10404;51.468;6.762;2023-07-28T08:03:25;18.20;80.60
20492;DHT22;10404;51.468;6.762;2023-07-28T08:05:52;18.20;80.50
20492;DHT22;10404;51.468;6.762;2023-07-28T08:08:18;18.20;80.00
20492;DHT22;10404;51.468;6.762;2023-07-28T08:10:45;18.20;80.30
20492;DHT22;10404;51.468;6.762;2023-07-28T08:13:11;18.30;80.20
20492;DHT22;10404;51.468;6.762;2023-07-28T08:15:37;18.30;80.30
20492;DHT22;10404;51.468;6.762;2023-07-28T08:18:02;18.40;80.30
20492;DHT22;10404;51.468;6.762;2023-07-28T08:20:28;18.40;80.80
20492;DHT22;10404;51.468;6.762;2023-07-28T08:22:53;18.40;80.80
20492;DHT22;10404;51.468;6.762;2023-07-28T08:25:19;18.50;80.40
20492;DHT22;10404;51.468;6.762;2023-07-28T08:27:45;18.50;80.40
20492;DHT22;10404;51.468;6.762;2023-07-28T08:30:11;18.60;80.70
20492;DHT22;10404;51.468;6.762;2023-07-28T08:32:37;18.60;80.50
20492;DHT22;10404;51.468;6.762;2023-07-28T08:35:03;18.70;80.30
20492;DHT22;10404;51.468;6.762;2023-07-28T08:37:29;18.70;79.80
20492;DHT22;10404;51.468;6.762;2023-07-28T08:39:54;18.70;80.20
20492;DHT22;10404;51.468;6.762;2023-07-28T08:42:21;18.70;80.60
20492;DHT22;10404;51.468;6.762;2023-07-28T08:44:50;18.80;80.50
20492;DHT22;10404;51.468;6.762;2023-07-28T08:47:18;18.80;80.30
20492;DHT22;10404;51.468;6.762;2023-07-28T08:49:44;18.90;81.20
20492;DHT22;10404;51.468;6.762;2023-07-28T08:52:10;18.90;80.70
20492;DHT22;10404;51.468;6.762;2023-07-28T08:54:36;18.90;80.90
20492;DHT22;10404;51.468;6.762;2023-07-28T08:57:01;18.90;81.00
20492;DHT22;10404;51.468;6.762;2023-07-28T08:59:29;19.00;80.80
20492;DHT22;10404;51.468;6.762;2023-07-28T09:01:56;19.10;80.70
20492;DHT22;10404;51.468;6.762;2023-07-28T09:04:24;19.10;80.50
20492;DHT22;10404;51.468;6.762;2023-07-28T09:06:50;19.10;80.90
20492;DHT22;10404;51.468;6.762;2023-07-28T09:09:18;19.20;81.20
20492;DHT22;10404;51.468;6.762;2023-07-28T09:11:49;19.20;80.70
20492;DHT22;10404;51.468;6.762;2023-07-28T09:14:16;19.20;80.90
20492;DHT22;10404;51.468;6.762;2023-07-28T09:16:46;19.20;80.50
20492;DHT22;10404;51.468;6.762;2023-07-28T09:19:12;19.30;80.90
20492;DHT22;10404;51.468;6.762;2023-07-28T09:21:39;19.30;80.60
20492;DHT22;10404;51.468;6.762;2023-07-28T09:24:07;19.30;80.30
20492;DHT22;10404;51.468;6.762;2023-07-28T09:26:51;19.40;81.00
20492;DHT22;10404;51.468;6.762;2023-07-28T09:29:19;19.50;80.60
20492;DHT22;10404;51.468;6.762;2023-07-28T09:31:49;19.50;80.30
20492;DHT22;10404;51.468;6.762;2023-07-28T09:34:27;19.50;80.40
20492;DHT22;10404;51.468;6.762;2023-07-28T09:36:57;19.70;80.20
20492;DHT22;10404;51.468;6.762;2023-07-28T09:39:23;20.00;78.90
20492;DHT22;10404;51.468;6.762;2023-07-28T09:41:49;20.30;78.20
20492;DHT22;10404;51.468;6.762;2023-07-28T09:44:16;20.30;77.70
20492;DHT22;10404;51.468;6.762;2023-07-28T09:49:28;20.40;77.60
20492;DHT22;10404;51.468;6.762;2023-07-28T09:51:54;20.30;78.40
20492;DHT22;10404;51.468;6.762;2023-07-28T09:54:28;20.50;78.10
20492;DHT22;10404;51.468;6.762;2023-07-28T09:56:58;20.50;78.10
20492;DHT22;10404;51.468;6.762;2023-07-28T09:59:29;20.50;78.00
20492;DHT22;10404;51.468;6.762;2023-07-28T10:01:58;20.50;78.00
20492;DHT22;10404;51.468;6.762;2023-07-28T10:04:24;20.50;78.00
20492;DHT22;10404;51.468;6.762;2023-07-28T10:06:51;20.50;78.60
20492;DHT22;10404;51.468;6.762;2023-07-28T10:09:23;20.40;78.70
20492;DHT22;10404;51.468;6.762;2023-07-28T10:11:49;20.40;78.80
20492;DHT22;10404;51.468;6.762;2023-07-28T10:14:43;20.30;79.30
20492;DHT22;10404;51.468;6.762;2023-07-28T10:17:15;20.40;78.90
20492;DHT22;10404;51.468;6.762;2023-07-28T10:19:41;20.40;79.00
20492;DHT22;10404;51.468;6.762;2023-07-28T10:22:11;20.40;79.30
20492;DHT22;10404;51.468;6.762;2023-07-28T10:24:52;20.40;79.00
20492;DHT22;10404;51.468;6.762;2023-07-28T10:27:37;20.50;79.10
20492;DHT22;10404;51.468;6.762;2023-07-28T10:30:09;20.50;79.10
20492;DHT22;10404;51.468;6.762;2023-07-28T10:32:48;20.50;78.70
20492;DHT22;10404;51.468;6.762;2023-07-28T10:37:44;20.50;78.30
20492;DHT22;10404;51.468;6.762;2023-07-28T10:40:26;20.60;78.20
20492;DHT22;10404;51.468;6.762;2023-07-28T10:42:54;20.60;78.10
20492;DHT22;10404;51.468;6.762;2023-07-28T10:45:22;20.60;78.20
20492;DHT22;10404;51.468;6.762;2023-07-28T10:47:48;20.70;78.30
20492;DHT22;10404;51.468;6.762;2023-07-28T10:50:14;20.80;78.10
20492;DHT22;10404;51.468;6.762;2023-07-28T10:52:44;20.80;78.00
20492;DHT22;10404;51.468;6.762;2023-07-28T10:55:19;20.90;77.80
20492;DHT22;10404;51.468;6.762;2023-07-28T10:57:46;21.00;77.80
20492;DHT22;10404;51.468;6.762;2023-07-28T11:00:14;21.10;77.50
20492;DHT22;10404;51.468;6.762;2023-07-28T11:02:44;21.10;77.30
20492;DHT22;10404;51.468;6.762;2023-07-28T11:05:11;21.30;77.50
20492;DHT22;10404;51.468;6.762;2023-07-28T11:07:43;21.40;77.10
20492;DHT22;10404;51.468;6.762;2023-07-28T11:10:13;21.40;76.60
20492;DHT22;10404;51.468;6.762;2023-07-28T11:12:40;21.50;76.70
20492;DHT22;10404;51.468;6.762;2023-07-28T11:15:09;21.50;76.10
20492;DHT22;10404;51.468;6.762;2023-07-28T11:17:43;21.50;76.20
20492;DHT22;10404;51.468;6.762;2023-07-28T11:20:16;21.60;76.60
20492;DHT22;10404;51.468;6.762;2023-07-28T11:22:43;21.60;76.80
20492;DHT22;10404;51.468;6.762;2023-07-28T11:25:09;21.70;75.90
20492;DHT22;10404;51.468;6.762;2023-07-28T11:27:38;21.70;76.10
20492;DHT22;10404;51.468;6.762;2023-07-28T11:30:06;21.70;76.50
20492;DHT22;10404;51.468;6.762;2023-07-28T11:32:37;21.70;76.40
20492;DHT22;10404;51.468;6.762;2023-07-28T11:35:07;21.90;76.50
20492;DHT22;10404;51.468;6.762;2023-07-28T11:37:36;21.90;75.90
20492;DHT22;10404;51.468;6.762;2023-07-28T11:40:03;21.90;75.80
20492;DHT22;10404;51.468;6.762;2023-07-28T11:42:51;22.00;75.50
20492;DHT22;10404;51.468;6.762;2023-07-28T11:45:19;22.00;75.50
20492;DHT22;10404;51.468;6.762;2023-07-28T11:48:04;22.10;75.30
20492;DHT22;10404;51.468;6.762;2023-07-28T11:50:38;22.10;75.00
20492;DHT22;10404;51.468;6.762;2023-07-28T11:53:05;22.20;74.60
20492;DHT22;10404;51.468;6.762;2023-07-28T11:55:31;22.30;74.90
20492;DHT22;10404;51.468;6.762;2023-07-28T11:57:58;22.50;74.90
20492;DHT22;10404;51.468;6.762;2023-07-28T12:00:31;22.50;74.20
20492;DHT22;10404;51.468;6.762;2023-07-28T12:03:10;22.70;74.20
20492;DHT22;10404;51.468;6.762;2023-07-28T12:05:40;22.80;73.50
20492;DHT22;10404;51.468;6.762;2023-07-28T12:08:06;23.00;73.20
20492;DHT22;10404;51.468;6.762;2023-07-28T12:10:33;23.10;72.50
20492;DHT22;10404;51.468;6.762;2023-07-28T12:13:04;23.10;72.40
20492;DHT22;10404;51.468;6.762;2023-07-28T12:15:31;23.30;72.20
20492;DHT22;10404;51.468;6.762;2023-07-28T12:20:45;23.50;71.70
20492;DHT22;10404;51.468;6.762;2023-07-28T12:23:19;23.60;71.60
20492;DHT22;10404;51.468;6.762;2023-07-28T12:25:45;23.60;71.20
20492;DHT22;10404;51.468;6.762;2023-07-28T12:28:11;23.80;71.20
20492;DHT22;10404;51.468;6.762;2023-07-28T12:30:37;23.90;71.50
20492;DHT22;10404;51.468;6.762;2023-07-28T12:33:06;24.00;71.30
20492;DHT22;10404;51.468;6.762;2023-07-28T12:35:33;24.10;71.30
20492;DHT22;10404;51.468;6.762;2023-07-28T12:38:01;24.20;70.80
20492;DHT22;10404;51.468;6.762;2023-07-28T12:40:28;24.40;71.00
20492;DHT22;10404;51.468;6.762;2023-07-28T12:42:55;24.40;71.20
20492;DHT22;10404;51.468;6.762;2023-07-28T12:45:21;24.60;71.00
20492;DHT22;10404;51.468;6.762;2023-07-28T12:47:47;24.70;70.30
20492;DHT22;10404;51.468;6.762;2023-07-28T12:50:12;24.80;70.30
20492;DHT22;10404;51.468;6.762;2023-07-28T12:52:38;25.00;70.40
20492;DHT22;10404;51.468;6.762;2023-07-28T12:55:04;25.10;71.00
20492;DHT22;10404;51.468;6.762;2023-07-28T12:57:31;25.30;69.90
20492;DHT22;10404;51.468;6.762;2023-07-28T12:59:57;25.40;69.90
20492;DHT22;10404;51.468;6.762;2023-07-28T13:02:22;25.50;69.20
20492;DHT22;10404;51.468;6.762;2023-07-28T13:04:48;25.60;68.80
20492;DHT22;10404;51.468;6.762;2023-07-28T13:07:14;25.60;69.00
20492;DHT22;10404;51.468;6.762;2023-07-28T13:09:40;25.80;69.00
20492;DHT22;10404;51.468;6.762;2023-07-28T13:12:07;25.90;69.30
20492;DHT22;10404;51.468;6.762;2023-07-28T13:14:34;26.00;68.70
20492;DHT22;10404;51.468;6.762;2023-07-28T13:16:59;26.00;68.60
20492;DHT22;10404;51.468;6.762;2023-07-28T13:19:25;26.00;68.10
20492;DHT22;10404;51.468;6.762;2023-07-28T13:21:51;26.00;68.30
20492;DHT22;10404;51.468;6.762;2023-07-28T13:24:16;26.10;68.30
20492;DHT22;10404;51.468;6.762;2023-07-28T13:26:42;26.20;68.20
20492;DHT22;10404;51.468;6.762;2023-07-28T13:29:08;26.20;67.60
20492;DHT22;10404;51.468;6.762;2023-07-28T13:31:33;26.20;67.50
20492;DHT22;10404;51.468;6.762;2023-07-28T13:33:59;26.20;67.70
20492;DHT22;10404;51.468;6.762;2023-07-28T13:36:25;26.20;67.30
20492;DHT22;10404;51.468;6.762;2023-07-28T13:38:50;26.20;67.10
20492;DHT22;10404;51.468;6.762;2023-07-28T13:41:16;26.20;67.10
20492;DHT22;10404;51.468;6.762;2023-07-28T13:43:41;26.20;67.10
20492;DHT22;10404;51.468;6.762;2023-07-28T13:46:07;26.20;66.60
20492;DHT22;10404;51.468;6.762;2023-07-28T13:48:34;26.30;66.70
20492;DHT22;10404;51.468;6.762;2023-07-28T13:51:01;26.30;66.70
20492;DHT22;10404;51.468;6.762;2023-07-28T13:53:27;26.30;66.80
20492;DHT22;10404;51.468;6.762;2023-07-28T13:55:54;26.20;66.60
20492;DHT22;10404;51.468;6.762;2023-07-28T13:58:20;26.20;66.40
20492;DHT22;10404;51.468;6.762;2023-07-28T14:00:46;26.20;66.20
20492;DHT22;10404;51.468;6.762;2023-07-28T14:03:11;26.20;66.20
20492;DHT22;10404;51.468;6.762;2023-07-28T14:05:38;26.20;66.40
20492;DHT22;10404;51.468;6.762;2023-07-28T14:08:03;26.20;65.70
20492;DHT22;10404;51.468;6.762;2023-07-28T14:10:29;26.20;65.90
20492;DHT22;10404;51.468;6.762;2023-07-28T14:12:57;26.20;65.80
20492;DHT22;10404;51.468;6.762;2023-07-28T14:15:23;26.20;65.70
20492;DHT22;10404;51.468;6.762;2023-07-28T14:17:48;26.10;65.10
20492;DHT22;10404;51.468;6.762;2023-07-28T14:20:14;26.10;65.40
20492;DHT22;10404;51.468;6.762;2023-07-28T14:22:40;26.10;65.20
20492;DHT22;10404;51.468;6.762;2023-07-28T14:25:05;26.20;64.90
20492;DHT22;10404;51.468;6.762;2023-07-28T14:27:31;26.20;64.70
20492;DHT22;10404;51.468;6.762;2023-07-28T14:29:57;26.30;64.60
20492;DHT22;10404;51.468;6.762;2023-07-28T14:32:22;26.40;64.40
20492;DHT22;10404;51.468;6.762;2023-07-28T14:34:48;26.40;64.50
20492;DHT22;10404;51.468;6.762;2023-07-28T14:37:13;26.40;64.40
20492;DHT22;10404;51.468;6.762;2023-07-28T14:39:39;26.40;64.20
20492;DHT22;10404;51.468;6.762;2023-07-28T14:42:05;26.40;64.10
20492;DHT22;10404;51.468;6.762;2023-07-28T14:44:30;26.50;64.00
20492;DHT22;10404;51.468;6.762;2023-07-28T14:46:56;26.50;63.70
20492;DHT22;10404;51.468;6.762;2023-07-28T14:49:22;26.50;63.80
20492;DHT22;10404;51.468;6.762;2023-07-28T14:51:48;26.50;63.80
20492;DHT22;10404;51.468;6.762;2023-07-28T14:54:13;26.60;63.60
20492;DHT22;10404;51.468;6.762;2023-07-28T14:56:39;26.60;63.40
20492;DHT22;10404;51.468;6.762;2023-07-28T14:59:05;26.60;63.20
20492;DHT22;10404;51.468;6.762;2023-07-28T15:01:31;26.60;63.20
20492;DHT22;10404;51.468;6.762;2023-07-28T15:03:58;26.70;63.40
20492;DHT22;10404;51.468;6.762;2023-07-28T15:06:24;26.60;62.90
20492;DHT22;10404;51.468;6.762;2023-07-28T15:08:50;26.60;63.20
20492;DHT22;10404;51.468;6.762;2023-07-28T15:11:16;26.60;63.40
20492;DHT22;10404;51.468;6.762;2023-07-28T15:13:43;26.70;63.40
20492;DHT22;10404;51.468;6.762;2023-07-28T15:16:10;26.70;63.20
20492;DHT22;10404;51.468;6.762;2023-07-28T15:18:35;26.60;62.90
20492;DHT22;10404;51.468;6.762;2023-07-28T15:21:01;26.60;63.40
20492;DHT22;10404;51.468;6.762;2023-07-28T15:23:27;26.60;63.10
20492;DHT22;10404;51.468;6.762;2023-07-28T15:25:53;26.60;62.90
20492;DHT22;10404;51.468;6.762;2023-07-28T15:28:23;26.60;62.90
20492;DHT22;10404;51.468;6.762;2023-07-28T15:30:48;26.60;62.80
20492;DHT22;10404;51.468;6.762;2023-07-28T15:33:17;26.60;63.20
20492;DHT22;10404;51.468;6.762;2023-07-28T15:35:47;26.60;63.10